Time;durP1;ratioP1;P1;durP2;ratioP2;P2;SDS_P1;SDS_P2;PMS_P1;PMS_P2;Temp;Humidity;BMP_temperature;BMP_pressure;BME280_temperature;BME280_humidity;BME280_pressure;Samples;Min_cycle;Max_cycle;Signal;HPM_P1;HPM_P2
2021/07/25 00:00:06;;;;;;;4.88;4.40;;;18.60;82.70;;;;;;5045483;28;20205;-72
2021/07/25 00:02:34;;;;;;;4.90;4.50;;;18.50;82.50;;;;;;5033549;28;20183;-73
2021/07/25 00:05:00;;;;;;;4.65;4.25;;;18.50;82.70;;;;;;5044519;28;20211;-73
2021/07/25 00:07:26;;;;;;;5.10;4.65;;;18.40;82.70;;;;;;5050271;28;20175;-72
2021/07/25 00:09:52;;;;;;;5.18;4.68;;;18.40;83.00;;;;;;5049572;28;20657;-72
2021/07/25 00:12:17;;;;;;;4.63;4.22;;;18.40;83.30;;;;;;5046348;28;20187;-73
2021/07/25 00:14:44;;;;;;;4.97;4.57;;;18.40;83.40;;;;;;5049765;28;20196;-73
2021/07/25 00:17:10;;;;;;;4.45;4.03;;;18.30;83.30;;;;;;5045277;28;20191;-73
2021/07/25 00:19:36;;;;;;;4.30;4.00;;;18.30;83.20;;;;;;5047895;28;20179;-72
2021/07/25 00:22:05;;;;;;;6.47;4.60;;;18.30;83.30;;;;;;5048608;28;20738;-72
2021/07/25 00:24:34;;;;;;;4.40;4.20;;;18.30;83.00;;;;;;5048502;28;20247;-73
2021/07/25 00:27:00;;;;;;;4.72;4.35;;;18.30;83.10;;;;;;5047676;28;20190;-73
2021/07/25 00:29:30;;;;;;;5.43;4.47;;;18.30;83.00;;;;;;5049766;28;20282;-73
2021/07/25 00:32:04;;;;;;;4.30;4.00;;;18.20;83.60;;;;;;5048614;28;20241;-73
2021/07/25 00:34:31;;;;;;;7.32;4.55;;;18.20;83.40;;;;;;5047693;28;20175;-72
2021/07/25 00:36:57;;;;;;;4.35;3.97;;;18.20;83.60;;;;;;5043397;28;20241;-73
2021/07/25 00:39:23;;;;;;;4.45;4.05;;;18.20;83.40;;;;;;5046095;28;20203;-73
2021/07/25 00:41:49;;;;;;;5.18;4.28;;;18.10;82.90;;;;;;5044654;28;20188;-73
2021/07/25 00:44:16;;;;;;;4.97;3.63;;;18.10;82.70;;;;;;5047217;28;20802;-73
2021/07/25 00:46:45;;;;;;;7.00;4.20;;;18.00;83.10;;;;;;5044957;28;20576;-73
2021/07/25 00:49:11;;;;;;;4.75;4.10;;;18.00;83.50;;;;;;5047876;28;20192;-72
2021/07/25 00:51:37;;;;;;;4.47;4.07;;;17.90;84.00;;;;;;5049556;28;20175;-73
2021/07/25 00:54:03;;;;;;;5.53;4.88;;;17.90;84.20;;;;;;5048563;28;20754;-73
2021/07/25 00:56:29;;;;;;;9.20;4.63;;;17.90;84.50;;;;;;5047536;28;20187;-73
2021/07/25 00:58:54;;;;;;;6.93;5.22;;;17.80;84.50;;;;;;5046953;28;20265;-73
2021/07/25 01:01:23;;;;;;;5.57;5.07;;;17.80;84.90;;;;;;5044316;28;20183;-73
2021/07/25 01:04:05;;;;;;;5.72;4.82;;;17.80;85.10;;;;;;5047259;28;20190;-73
2021/07/25 01:06:36;;;;;;;5.70;5.03;;;17.80;85.00;;;;;;5046707;28;20186;-72
2021/07/25 01:09:08;;;;;;;5.00;4.60;;;17.70;84.90;;;;;;5046905;28;20190;-73
2021/07/25 01:11:40;;;;;;;4.47;4.18;;;17.70;85.10;;;;;;5042068;28;20462;-74
2021/07/25 01:14:06;;;;;;;5.35;4.82;;;17.70;84.90;;;;;;5058511;28;20188;-75
2021/07/25 01:16:33;;;;;;;5.18;4.63;;;17.70;84.80;;;;;;5048666;28;20199;-73
2021/07/25 01:18:59;;;;;;;5.18;4.40;;;17.60;85.10;;;;;;5047809;28;20188;-73
2021/07/25 01:21:24;;;;;;;4.25;3.95;;;17.60;85.20;;;;;;5048099;28;20184;-72
2021/07/25 01:23:50;;;;;;;4.97;4.63;;;17.60;85.30;;;;;;5048534;28;20196;-71
2021/07/25 01:26:29;;;;;;;4.60;4.30;;;17.60;85.40;;;;;;5047802;28;20269;-72
2021/07/25 01:28:58;;;;;;;4.53;4.22;;;17.60;85.00;;;;;;5048165;28;20221;-72
2021/07/25 01:31:33;;;;;;;4.18;3.95;;;17.60;85.30;;;;;;5037855;28;20291;-72
2021/07/25 01:34:00;;;;;;;5.30;5.00;;;17.60;85.30;;;;;;5048435;28;20265;-72
2021/07/25 01:36:26;;;;;;;4.47;4.18;;;17.50;85.70;;;;;;5048103;28;20234;-71
2021/07/25 01:38:55;;;;;;;4.28;3.97;;;17.50;85.70;;;;;;5048078;28;20218;-71
2021/07/25 01:41:21;;;;;;;4.30;3.80;;;17.50;85.60;;;;;;5047964;28;20279;-72
2021/07/25 01:43:49;;;;;;;6.38;3.90;;;17.40;86.00;;;;;;5043222;28;20571;-72
2021/07/25 01:46:16;;;;;;;4.15;3.75;;;17.40;85.70;;;;;;5045594;28;20190;-72
2021/07/25 01:48:42;;;;;;;3.83;3.63;;;17.40;85.50;;;;;;5043367;28;20183;-73
2021/07/25 01:51:10;;;;;;;4.43;4.03;;;17.40;85.40;;;;;;5049017;28;20707;-72
2021/07/25 01:53:35;;;;;;;7.28;4.32;;;17.40;85.50;;;;;;5047079;28;20179;-72
2021/07/25 01:56:02;;;;;;;5.03;4.65;;;17.30;87.00;;;;;;5044301;28;20175;-72
2021/07/25 01:58:28;;;;;;;5.47;4.28;;;17.30;86.30;;;;;;5048524;28;20195;-72
2021/07/25 02:00:54;;;;;;;4.88;4.38;;;17.20;86.30;;;;;;5046718;28;20400;-72
2021/07/25 02:03:24;;;;;;;5.15;4.32;;;17.20;86.50;;;;;;5047045;28;20884;-72
2021/07/25 02:05:50;;;;;;;4.65;4.25;;;17.10;86.30;;;;;;5045908;28;20298;-73
2021/07/25 02:08:17;;;;;;;4.43;4.13;;;17.10;86.40;;;;;;5035779;28;20191;-72
2021/07/25 02:10:44;;;;;;;4.30;3.90;;;17.10;85.90;;;;;;5046006;28;20610;-73
2021/07/25 02:13:11;;;;;;;3.95;3.65;;;17.10;86.00;;;;;;5048207;28;20267;-72
2021/07/25 02:15:36;;;;;;;6.07;4.30;;;17.00;86.10;;;;;;5042601;28;20287;-72
2021/07/25 02:18:02;;;;;;;3.85;3.55;;;17.00;86.30;;;;;;5039352;28;20285;-72
2021/07/25 02:20:28;;;;;;;5.03;3.95;;;17.00;86.50;;;;;;5047401;28;20259;-71
2021/07/25 02:22:53;;;;;;;3.70;3.40;;;16.90;86.60;;;;;;5047862;28;20288;-71
2021/07/25 02:25:19;;;;;;;3.60;3.30;;;16.90;86.50;;;;;;5045194;28;21125;-71
2021/07/25 02:27:45;;;;;;;3.90;3.70;;;16.90;86.40;;;;;;5046285;28;20183;-71
2021/07/25 02:30:11;;;;;;;2.92;2.83;;;16.90;86.40;;;;;;5048713;28;20180;-72
2021/07/25 02:32:36;;;;;;;4.60;4.30;;;16.90;86.50;;;;;;5047268;28;20684;-71
2021/07/25 02:35:02;;;;;;;4.40;3.70;;;16.90;86.50;;;;;;5044851;28;20192;-71
2021/07/25 02:37:28;;;;;;;3.85;3.60;;;16.80;86.50;;;;;;5041496;28;20215;-71
2021/07/25 02:39:53;;;;;;;3.72;3.22;;;16.80;86.50;;;;;;5046978;28;20190;-73
2021/07/25 02:42:19;;;;;;;3.72;3.28;;;16.80;86.40;;;;;;5046520;28;20188;-72
2021/07/25 02:44:45;;;;;;;3.42;3.17;;;16.80;86.40;;;;;;5048099;28;20316;-71
2021/07/25 02:47:11;;;;;;;3.70;3.40;;;16.80;86.50;;;;;;5039379;28;20194;-71
2021/07/25 02:49:37;;;;;;;3.38;3.17;;;16.80;86.50;;;;;;5047461;28;20183;-72
2021/07/25 02:52:03;;;;;;;3.88;3.63;;;16.80;86.80;;;;;;5047483;28;20195;-71
2021/07/25 02:54:29;;;;;;;3.15;2.95;;;16.80;86.90;;;;;;5048584;28;20191;-71
2021/07/25 02:56:54;;;;;;;4.05;3.53;;;16.70;86.80;;;;;;5042606;28;20920;-71
2021/07/25 02:59:20;;;;;;;3.53;3.33;;;16.70;86.80;;;;;;5047884;28;20661;-72
2021/07/25 03:01:47;;;;;;;4.45;3.38;;;16.70;86.70;;;;;;5046632;28;20198;-71
2021/07/25 03:04:13;;;;;;;6.35;3.03;;;16.70;86.60;;;;;;5045819;28;20210;-71
2021/07/25 03:06:38;;;;;;;4.00;3.40;;;16.70;86.50;;;;;;5044052;28;20179;-72
2021/07/25 03:09:04;;;;;;;3.33;3.03;;;16.70;86.40;;;;;;5046963;28;20200;-72
2021/07/25 03:11:30;;;;;;;3.92;3.60;;;16.70;86.50;;;;;;5044441;28;20237;-71
2021/07/25 03:13:55;;;;;;;3.80;3.50;;;16.70;86.50;;;;;;5048929;28;20180;-71
2021/07/25 03:16:21;;;;;;;3.80;3.53;;;16.70;86.70;;;;;;5045567;28;20198;-71
2021/07/25 03:18:46;;;;;;;4.30;3.65;;;16.70;86.90;;;;;;5046779;28;20206;-72
2021/07/25 03:21:12;;;;;;;3.83;3.60;;;16.60;87.00;;;;;;5041898;28;20198;-72
2021/07/25 03:23:38;;;;;;;7.82;3.92;;;16.60;87.80;;;;;;5045438;28;20266;-71
2021/07/25 03:26:03;;;;;;;4.05;3.75;;;16.60;88.00;;;;;;5044244;28;20179;-72
2021/07/25 03:28:29;;;;;;;4.63;4.30;;;16.60;88.60;;;;;;5043768;28;20188;-72
2021/07/25 03:30:55;;;;;;;4.30;3.90;;;16.60;88.50;;;;;;5045980;28;20183;-72
2021/07/25 03:33:21;;;;;;;3.92;3.53;;;16.60;88.50;;;;;;5045921;28;20183;-72
2021/07/25 03:35:47;;;;;;;4.15;3.75;;;16.60;88.50;;;;;;5046070;28;20802;-71
2021/07/25 03:38:13;;;;;;;5.72;4.30;;;16.60;88.30;;;;;;5045652;28;20211;-71
2021/07/25 03:40:42;;;;;;;4.82;4.43;;;16.60;88.30;;;;;;5043119;28;20298;-71
2021/07/25 03:43:08;;;;;;;4.38;4.07;;;16.60;88.20;;;;;;5044432;28;20183;-72
2021/07/25 03:45:34;;;;;;;6.05;4.53;;;16.60;88.40;;;;;;5043532;28;20227;-72
2021/07/25 03:48:00;;;;;;;6.97;4.45;;;16.60;88.30;;;;;;5043498;28;20188;-71
2021/07/25 03:50:25;;;;;;;6.88;4.57;;;16.50;88.60;;;;;;5048334;28;20189;-72
2021/07/25 03:52:51;;;;;;;3.97;3.67;;;16.50;88.30;;;;;;5046980;28;20199;-71
2021/07/25 03:55:17;;;;;;;4.88;4.22;;;16.50;88.10;;;;;;5041585;28;20195;-72
2021/07/25 03:57:44;;;;;;;4.72;4.20;;;16.50;88.10;;;;;;5045629;28;20575;-72
2021/07/25 04:00:10;;;;;;;3.67;3.42;;;16.50;88.00;;;;;;5045021;28;20215;-72
2021/07/25 04:02:35;;;;;;;5.13;4.50;;;16.50;88.00;;;;;;5046804;28;20188;-72
2021/07/25 04:05:01;;;;;;;5.75;4.30;;;16.50;87.80;;;;;;5046583;28;20999;-71
2021/07/25 04:07:27;;;;;;;4.10;3.78;;;16.50;88.00;;;;;;5046593;28;20949;-72
2021/07/25 04:09:52;;;;;;;4.28;4.07;;;16.50;87.80;;;;;;5045765;28;20641;-71
2021/07/25 04:12:18;;;;;;;4.43;3.75;;;16.50;88.10;;;;;;5036673;28;20187;-71
2021/07/25 04:14:44;;;;;;;4.22;3.83;;;16.50;88.00;;;;;;5041299;28;20276;-71
2021/07/25 04:17:09;;;;;;;5.38;3.45;;;16.50;88.00;;;;;;5046352;28;20218;-71
2021/07/25 04:19:35;;;;;;;4.00;3.58;;;16.50;88.30;;;;;;5046091;28;20187;-71
2021/07/25 04:22:01;;;;;;;4.13;3.83;;;16.60;88.20;;;;;;5046631;28;20190;-72
2021/07/25 04:24:27;;;;;;;4.30;4.00;;;16.60;88.40;;;;;;5046733;28;20223;-72
2021/07/25 04:26:53;;;;;;;4.63;4.07;;;16.50;88.70;;;;;;5041611;28;20215;-72
2021/07/25 04:29:19;;;;;;;6.40;3.72;;;16.50;88.60;;;;;;5042551;28;20184;-71
2021/07/25 04:31:46;;;;;;;3.97;3.70;;;16.50;88.40;;;;;;5046988;28;20241;-72
2021/07/25 04:34:12;;;;;;;4.50;4.13;;;16.50;88.50;;;;;;5046751;28;20672;-72
2021/07/25 04:36:39;;;;;;;3.70;3.42;;;16.50;88.60;;;;;;5041719;28;20272;-71
2021/07/25 04:39:07;;;;;;;4.72;3.58;;;16.60;88.50;;;;;;5045096;28;20198;-71
2021/07/25 04:41:56;;;;;;;4.53;4.18;;;16.60;88.40;;;;;;5045909;28;20176;-71
2021/07/25 04:44:34;;;;;;;6.78;4.80;;;16.60;88.00;;;;;;5043039;28;20602;-71
2021/07/25 04:47:04;;;;;;;4.40;4.10;;;16.60;88.40;;;;;;5046277;28;20291;-71
2021/07/25 04:49:41;;;;;;;4.18;3.85;;;16.60;88.30;;;;;;5045369;28;20653;-72
2021/07/25 04:52:11;;;;;;;6.43;4.18;;;16.60;88.00;;;;;;5049709;28;20171;-71
2021/07/25 04:54:42;;;;;;;6.53;4.13;;;16.60;88.10;;;;;;5048075;28;20192;-71
2021/07/25 04:57:12;;;;;;;4.63;4.25;;;16.60;88.50;;;;;;5048806;28;20184;-73
2021/07/25 04:59:49;;;;;;;6.65;4.00;;;16.60;88.80;;;;;;5032704;28;20625;-70
2021/07/25 05:02:16;;;;;;;7.20;4.15;;;16.70;88.10;;;;;;5044697;28;20564;-71
2021/07/25 05:04:42;;;;;;;4.95;4.47;;;16.70;88.50;;;;;;5047801;28;20246;-71
2021/07/25 05:07:12;;;;;;;4.15;3.70;;;16.70;88.60;;;;;;5042169;28;20704;-71
2021/07/25 05:09:39;;;;;;;4.60;4.25;;;16.80;88.30;;;;;;5048198;28;20262;-71
2021/07/25 05:12:29;;;;;;;3.53;3.40;;;16.80;88.70;;;;;;5046232;28;20202;-71
2021/07/25 05:14:57;;;;;;;3.55;3.35;;;16.90;88.20;;;;;;5044800;28;20207;-71
2021/07/25 05:17:58;;;;;;;3.92;3.70;;;16.90;88.10;;;;;;5035017;28;20191;-72
2021/07/25 05:20:38;;;;;;;4.18;3.88;;;17.00;87.80;;;;;;5028419;28;20204;-71
2021/07/25 05:23:21;;;;;;;3.92;3.63;;;17.10;87.70;;;;;;5027143;28;20323;-71
2021/07/25 05:25:51;;;;;;;4.18;3.88;;;17.20;87.70;;;;;;5025801;28;20240;-71
2021/07/25 05:28:19;;;;;;;4.28;3.97;;;17.20;87.60;;;;;;5026084;28;20216;-72
2021/07/25 05:30:54;;;;;;;5.25;4.18;;;17.30;87.60;;;;;;5008484;28;20767;-70
2021/07/25 05:33:21;;;;;;;4.53;4.13;;;17.40;87.40;;;;;;5026341;28;20594;-71
2021/07/25 05:35:47;;;;;;;4.78;4.18;;;17.40;87.30;;;;;;5026487;28;20199;-71
2021/07/25 05:38:13;;;;;;;4.63;4.30;;;17.50;87.10;;;;;;5025453;28;20662;-71
2021/07/25 05:40:39;;;;;;;5.82;4.05;;;17.60;87.00;;;;;;5026176;28;20184;-71
2021/07/25 05:43:05;;;;;;;5.38;4.70;;;17.60;87.20;;;;;;5026415;28;20239;-71
2021/07/25 05:45:31;;;;;;;5.70;5.28;;;17.70;87.10;;;;;;5024297;28;20212;-71
2021/07/25 05:47:57;;;;;;;4.47;4.05;;;17.70;86.80;;;;;;5023027;28;20227;-72
2021/07/25 05:50:22;;;;;;;5.03;4.45;;;17.80;86.90;;;;;;5027618;28;20195;-71
2021/07/25 05:52:49;;;;;;;4.90;4.40;;;17.80;86.60;;;;;;5027591;28;20304;-72
2021/07/25 05:55:25;;;;;;;5.00;4.60;;;17.90;86.20;;;;;;5025959;28;20688;-71
2021/07/25 05:57:51;;;;;;;5.15;4.65;;;17.90;85.80;;;;;;5045165;28;20199;-72
2021/07/25 06:00:18;;;;;;;4.55;4.15;;;18.00;86.30;;;;;;5046753;28;20275;-71
2021/07/25 06:02:57;;;;;;;4.75;4.35;;;18.10;85.70;;;;;;5047933;28;20396;-72
2021/07/25 06:05:25;;;;;;;4.30;3.90;;;18.10;85.10;;;;;;5042524;28;20227;-72
2021/07/25 06:07:52;;;;;;;5.28;4.78;;;18.20;85.30;;;;;;5046505;28;20302;-72
2021/07/25 06:10:18;;;;;;;4.72;4.20;;;18.30;85.20;;;;;;5046479;28;20182;-73
2021/07/25 06:12:44;;;;;;;4.55;4.25;;;18.40;85.30;;;;;;5041525;28;20188;-72
2021/07/25 06:15:10;;;;;;;4.43;4.10;;;18.50;84.90;;;;;;5043228;28;20192;-72
2021/07/25 06:17:36;;;;;;;6.03;4.40;;;18.50;84.70;;;;;;5042563;28;20315;-72
2021/07/25 06:20:03;;;;;;;4.97;4.50;;;18.60;84.60;;;;;;5044080;28;20263;-72
2021/07/25 06:22:40;;;;;;;5.85;5.28;;;18.70;84.30;;;;;;5048148;28;20236;-72
2021/07/25 06:25:07;;;;;;;4.45;4.05;;;18.70;83.90;;;;;;5044825;28;20211;-72
2021/07/25 06:27:32;;;;;;;4.95;4.65;;;18.80;84.10;;;;;;5047170;28;20630;-72
2021/07/25 06:29:59;;;;;;;4.95;4.55;;;18.90;83.90;;;;;;5046351;28;20754;-73
2021/07/25 06:32:25;;;;;;;6.30;4.00;;;19.00;83.80;;;;;;5038235;28;20188;-73
2021/07/25 06:34:50;;;;;;;5.07;4.57;;;19.10;83.70;;;;;;5046437;28;20194;-70
2021/07/25 06:37:16;;;;;;;5.13;4.50;;;19.20;83.50;;;;;;5045676;28;20216;-71
2021/07/25 06:39:42;;;;;;;4.53;4.15;;;19.20;82.70;;;;;;5038031;28;20274;-72
2021/07/25 06:42:08;;;;;;;6.50;4.10;;;19.30;82.60;;;;;;5045603;28;20266;-72
2021/07/25 06:44:34;;;;;;;6.57;4.82;;;19.30;82.70;;;;;;5044132;28;20226;-71
2021/07/25 06:47:00;;;;;;;5.05;4.55;;;19.40;82.30;;;;;;5040115;28;20184;-70
2021/07/25 06:49:25;;;;;;;6.95;4.25;;;19.50;82.20;;;;;;5047535;28;20609;-71
2021/07/25 06:51:51;;;;;;;5.93;4.22;;;19.50;82.30;;;;;;5043740;28;20190;-71
2021/07/25 06:54:17;;;;;;;4.05;3.67;;;19.60;82.00;;;;;;5043899;28;20214;-71
2021/07/25 06:56:43;;;;;;;4.90;4.50;;;19.70;81.90;;;;;;5043067;28;20194;-70
2021/07/25 06:59:09;;;;;;;4.82;4.43;;;19.70;81.90;;;;;;5037023;28;20268;-71
2021/07/25 07:01:35;;;;;;;5.85;4.78;;;19.80;81.70;;;;;;5046713;28;20269;-70
2021/07/25 07:04:00;;;;;;;5.68;4.82;;;19.90;81.30;;;;;;5044497;28;20603;-70
2021/07/25 07:06:26;;;;;;;6.15;5.55;;;19.90;80.60;;;;;;5045111;28;20233;-69
2021/07/25 07:08:51;;;;;;;5.38;4.97;;;19.90;80.80;;;;;;5046495;28;20347;-69
2021/07/25 07:11:17;;;;;;;5.15;4.75;;;20.00;81.00;;;;;;5042201;28;20211;-72
2021/07/25 07:13:43;;;;;;;4.45;4.00;;;20.10;80.40;;;;;;5038778;28;20714;-71
2021/07/25 07:16:08;;;;;;;5.32;4.80;;;20.10;80.60;;;;;;5046492;28;20199;-72
2021/07/25 07:18:34;;;;;;;4.97;4.68;;;20.20;80.80;;;;;;5036214;28;20232;-72
2021/07/25 07:21:00;;;;;;;4.55;4.20;;;20.30;80.60;;;;;;5023496;28;20191;-72
2021/07/25 07:23:25;;;;;;;4.13;3.92;;;20.40;80.50;;;;;;5027264;28;20222;-72
2021/07/25 07:25:53;;;;;;;4.82;4.43;;;20.50;80.20;;;;;;5026963;28;20216;-72
2021/07/25 07:28:21;;;;;;;4.85;4.50;;;20.60;80.10;;;;;;5027022;28;20176;-73
2021/07/25 07:30:51;;;;;;;5.55;4.65;;;20.70;80.00;;;;;;5027229;28;20184;-72
2021/07/25 07:33:19;;;;;;;5.38;4.18;;;20.80;79.90;;;;;;5024856;28;20211;-72
2021/07/25 07:35:45;;;;;;;5.10;4.60;;;20.90;79.70;;;;;;5016913;28;20621;-72
2021/07/25 07:38:12;;;;;;;5.75;4.40;;;21.00;79.30;;;;;;5025845;28;20215;-72
2021/07/25 07:40:39;;;;;;;5.47;4.25;;;21.00;79.00;;;;;;5023580;28;20180;-71
2021/07/25 07:43:06;;;;;;;4.47;4.18;;;21.10;78.80;;;;;;5025734;28;20246;-71
2021/07/25 07:45:33;;;;;;;6.40;4.63;;;21.20;78.70;;;;;;5026983;28;20219;-70
2021/07/25 07:47:58;;;;;;;4.53;4.22;;;21.30;78.40;;;;;;5026636;28;20201;-71
2021/07/25 07:50:24;;;;;;;4.68;4.32;;;21.40;78.40;;;;;;5024103;28;20192;-71
2021/07/25 07:52:50;;;;;;;4.57;4.28;;;21.40;78.70;;;;;;5024361;28;20222;-71
2021/07/25 07:55:16;;;;;;;4.88;4.30;;;21.50;78.70;;;;;;5020710;28;20267;-71
2021/07/25 07:57:42;;;;;;;5.57;5.07;;;21.60;77.50;;;;;;5019192;28;20184;-70
2021/07/25 08:00:09;;;;;;;4.22;3.83;;;21.70;77.50;;;;;;5017239;28;20662;-71
2021/07/25 08:02:35;;;;;;;6.68;4.65;;;21.80;77.80;;;;;;5026904;28;20250;-71
2021/07/25 08:05:02;;;;;;;4.55;4.25;;;21.90;77.70;;;;;;5018101;28;20231;-71
2021/07/25 08:07:28;;;;;;;5.72;4.05;;;22.00;77.50;;;;;;5025156;28;20267;-70
2021/07/25 08:09:54;;;;;;;5.03;4.63;;;22.00;77.10;;;;;;5023490;28;20271;-73
2021/07/25 08:12:19;;;;;;;5.47;5.05;;;22.10;76.80;;;;;;5018903;28;20180;-72
2021/07/25 08:14:45;;;;;;;5.20;4.78;;;22.20;76.10;;;;;;5027086;28;20233;-72
2021/07/25 08:17:11;;;;;;;5.57;4.93;;;22.30;75.20;;;;;;5028089;28;20201;-72
2021/07/25 08:19:36;;;;;;;5.40;5.00;;;22.30;75.20;;;;;;5026454;28;20218;-73
2021/07/25 08:22:03;;;;;;;5.78;4.50;;;22.40;74.70;;;;;;5031073;28;20572;-72
2021/07/25 08:24:30;;;;;;;5.57;4.57;;;22.50;75.20;;;;;;5025295;28;20713;-72
2021/07/25 08:26:55;;;;;;;16.92;4.95;;;22.60;75.30;;;;;;5023968;28;20180;-71
2021/07/25 08:29:21;;;;;;;4.63;4.22;;;22.60;75.20;;;;;;5032293;28;20580;-72
2021/07/25 08:31:47;;;;;;;4.65;4.32;;;22.80;75.30;;;;;;5026384;28;20200;-72
2021/07/25 08:34:12;;;;;;;7.07;5.13;;;22.80;75.40;;;;;;5030628;28;20286;-75
2021/07/25 08:36:38;;;;;;;6.38;4.88;;;22.90;75.20;;;;;;5032421;28;20192;-76
2021/07/25 08:39:04;;;;;;;5.75;4.90;;;23.00;74.30;;;;;;5030661;28;20184;-72
2021/07/25 08:42:01;;;;;;;5.22;4.82;;;23.20;74.00;;;;;;5024857;28;20744;-73
2021/07/25 08:44:43;;;;;;;6.68;4.75;;;23.30;74.70;;;;;;5029134;28;20220;-73
2021/07/25 08:47:22;;;;;;;4.50;4.10;;;23.40;73.80;;;;;;5022945;28;20188;-72
2021/07/25 08:49:55;;;;;;;3.85;3.60;;;23.50;73.20;;;;;;5026205;28;20183;-73
2021/07/25 08:52:29;;;;;;;3.65;3.55;;;23.70;70.60;;;;;;5033995;28;20198;-73
2021/07/25 08:54:56;;;;;;;3.40;3.20;;;23.80;70.50;;;;;;5029975;28;20242;-73
2021/07/25 08:57:26;;;;;;;3.83;3.63;;;23.80;70.50;;;;;;5029532;28;20185;-73
2021/07/25 08:59:54;;;;;;;8.82;4.13;;;24.00;71.30;;;;;;5033001;28;20233;-73
2021/07/25 09:02:24;;;;;;;3.83;3.55;;;24.10;71.50;;;;;;5034189;28;20246;-72
2021/07/25 09:04:51;;;;;;;4.78;3.80;;;24.20;71.20;;;;;;5035248;28;20697;-71
2021/07/25 09:07:19;;;;;;;3.60;3.38;;;24.30;71.30;;;;;;5031429;28;20192;-72
2021/07/25 09:09:49;;;;;;;3.85;3.65;;;24.40;70.60;;;;;;5032297;28;20211;-72
2021/07/25 09:12:16;;;;;;;2.80;2.70;;;24.60;69.80;;;;;;5032805;28;20188;-72
2021/07/25 09:14:45;;;;;;;3.53;3.33;;;24.70;68.50;;;;;;5024553;28;20215;-73
2021/07/25 09:17:11;;;;;;;3.80;3.20;;;24.80;69.00;;;;;;5026749;28;20188;-71
2021/07/25 09:20:22;;;;;;;3.50;3.30;;;25.00;66.40;;;;;;5016764;28;20921;-71
2021/07/25 09:22:47;;;;;;;4.00;2.92;;;25.10;68.30;;;;;;5027123;28;20602;-70
2021/07/25 09:25:19;;;;;;;2.67;2.58;;;25.30;65.40;;;;;;5015105;28;20208;-72
2021/07/25 09:27:45;;;;;;;3.20;2.90;;;25.40;64.00;;;;;;5020311;28;20223;-72
2021/07/25 09:30:21;;;;;;;4.35;3.05;;;25.40;64.80;;;;;;5019660;28;20177;-72
2021/07/25 09:32:49;;;;;;;2.90;2.80;;;25.60;65.50;;;;;;5026677;28;20208;-72
2021/07/25 09:35:27;;;;;;;3.00;2.83;;;25.70;65.70;;;;;;5009971;28;21044;-72
2021/07/25 09:37:56;;;;;;;2.75;2.65;;;25.80;63.90;;;;;;5016868;28;20187;-72
2021/07/25 09:40:30;;;;;;;2.67;2.47;;;25.90;61.40;;;;;;5020070;28;20630;-73
2021/07/25 09:43:08;;;;;;;3.03;2.75;;;25.90;63.40;;;;;;5018150;28;20602;-73
2021/07/25 09:45:56;;;;;;;2.60;2.50;;;26.10;63.30;;;;;;5023128;28;20303;-73
2021/07/25 09:48:30;;;;;;;2.63;2.47;;;26.20;63.90;;;;;;5006866;28;20181;-73
2021/07/25 09:51:01;;;;;;;2.45;2.35;;;26.40;63.90;;;;;;4998914;28;20240;-73
2021/07/25 09:53:46;;;;;;;3.38;2.53;;;26.60;62.80;;;;;;5008477;28;20718;-73
2021/07/25 09:56:19;;;;;;;3.90;2.40;;;26.90;62.30;;;;;;5026335;28;20242;-74
2021/07/25 09:58:45;;;;;;;2.28;2.05;;;27.20;60.80;;;;;;5006814;28;20223;-73
2021/07/25 10:01:31;;;;;;;2.70;2.60;;;27.40;60.60;;;;;;5022667;28;20176;-73
2021/07/25 10:04:13;;;;;;;2.30;2.30;;;27.70;58.10;;;;;;5020604;28;20283;-73
2021/07/25 10:06:41;;;;;;;1.92;1.83;;;28.10;58.10;;;;;;5022376;28;20188;-74
2021/07/25 10:09:16;;;;;;;2.55;2.45;;;28.40;57.80;;;;;;5017111;28;20181;-73
2021/07/25 10:11:52;;;;;;;2.75;2.55;;;28.80;57.80;;;;;;5015402;28;20177;-73
2021/07/25 10:14:19;;;;;;;3.42;2.17;;;29.20;55.30;;;;;;5018305;28;20199;-73
2021/07/25 10:16:51;;;;;;;2.25;2.15;;;29.70;54.00;;;;;;5022443;28;20177;-73
2021/07/25 10:19:28;;;;;;;2.42;2.33;;;30.00;55.40;;;;;;5037646;28;20360;-73
2021/07/25 10:21:56;;;;;;;3.58;2.25;;;30.50;53.20;;;;;;5036177;28;20617;-73
2021/07/25 10:24:23;;;;;;;2.50;2.40;;;30.70;53.10;;;;;;5037758;28;20208;-73
2021/07/25 10:26:52;;;;;;;2.58;2.47;;;30.90;52.30;;;;;;5036239;28;20194;-73
2021/07/25 10:29:22;;;;;;;2.42;2.33;;;31.00;52.30;;;;;;5028074;28;20259;-73
2021/07/25 10:31:50;;;;;;;5.22;2.58;;;31.30;53.60;;;;;;5029598;28;20238;-73
2021/07/25 10:34:16;;;;;;;2.78;2.20;;;31.70;52.30;;;;;;5022127;28;20192;-73
2021/07/25 10:36:44;;;;;;;2.03;2.03;;;31.90;52.30;;;;;;5017326;28;20200;-73
2021/07/25 10:39:10;;;;;;;2.55;2.45;;;32.30;50.60;;;;;;5015541;28;20180;-74
2021/07/25 10:41:39;;;;;;;2.08;2.08;;;32.90;50.10;;;;;;5020464;28;20172;-74
2021/07/25 10:44:05;;;;;;;2.55;2.33;;;33.70;49.40;;;;;;5021954;28;20608;-74
2021/07/25 10:46:32;;;;;;;1.98;1.98;;;34.70;49.00;;;;;;5017880;28;20176;-74
2021/07/25 10:49:04;;;;;;;3.45;1.98;;;35.50;48.40;;;;;;5025886;28;20593;-74
2021/07/25 10:51:34;;;;;;;2.50;2.35;;;36.10;48.80;;;;;;5025813;28;20187;-74
2021/07/25 10:54:23;;;;;;;2.13;2.13;;;36.40;48.20;;;;;;5024269;28;20279;-74
2021/07/25 10:57:00;;;;;;;2.22;2.13;;;36.70;46.10;;;;;;5024894;28;20211;-74
2021/07/25 10:59:43;;;;;;;2.30;2.20;;;37.10;45.60;;;;;;5024974;28;20184;-74
2021/07/25 11:02:14;;;;;;;2.28;2.28;;;37.50;45.00;;;;;;5024641;28;20184;-73
2021/07/25 11:04:55;;;;;;;2.25;2.10;;;37.90;45.90;;;;;;5010763;28;20199;-74
2021/07/25 11:07:23;;;;;;;2.40;2.30;;;38.30;43.30;;;;;;5027593;28;20720;-74
2021/07/25 11:10:11;;;;;;;2.15;2.05;;;38.50;45.60;;;;;;5025363;28;20575;-73
2021/07/25 11:12:52;;;;;;;2.13;2.10;;;38.30;43.50;;;;;;5025050;28;20176;-73
2021/07/25 11:15:35;;;;;;;2.05;1.95;;;38.20;43.10;;;;;;5024282;28;20225;-74
2021/07/25 11:18:02;;;;;;;2.50;2.40;;;38.10;41.30;;;;;;5016035;28;20627;-74
2021/07/25 11:20:31;;;;;;;2.67;2.58;;;38.10;44.10;;;;;;5015099;28;20277;-74
2021/07/25 11:22:57;;;;;;;2.80;2.63;;;38.40;43.80;;;;;;5023878;28;20184;-74
2021/07/25 11:25:32;;;;;;;1.95;1.95;;;39.00;43.40;;;;;;5024383;28;20270;-73
2021/07/25 11:27:58;;;;;;;1.63;1.63;;;39.60;43.20;;;;;;5022292;28;20195;-74
2021/07/25 11:30:51;;;;;;;3.20;2.28;;;40.10;43.30;;;;;;5026759;28;20223;-72
2021/07/25 11:33:38;;;;;;;1.98;1.92;;;40.30;40.50;;;;;;4906736;29;20231;-71
2021/07/25 11:36:08;;;;;;;2.10;2.10;;;40.20;41.60;;;;;;4925249;29;20223;-72
2021/07/25 11:38:35;;;;;;;1.90;1.90;;;40.20;42.30;;;;;;4920861;29;20203;-72
2021/07/25 11:41:01;;;;;;;4.82;1.83;;;40.40;42.20;;;;;;4924893;29;20191;-72
2021/07/25 11:44:01;;;;;;;2.05;1.95;;;40.70;40.70;;;;;;4934674;29;20191;-71
2021/07/25 11:46:30;;;;;;;2.30;2.30;;;41.10;41.50;;;;;;4931563;29;20598;-72
2021/07/25 11:49:08;;;;;;;2.10;2.10;;;41.60;42.60;;;;;;4931914;29;20213;-71
2021/07/25 11:51:35;;;;;;;2.13;2.13;;;41.40;41.70;;;;;;4931860;29;20261;-73
2021/07/25 11:54:01;;;;;;;2.45;2.25;;;41.20;42.80;;;;;;4927353;29;20191;-71
2021/07/25 11:56:28;;;;;;;2.33;2.33;;;41.20;42.50;;;;;;4940781;29;20178;-71
2021/07/25 11:59:08;;;;;;;2.28;2.28;;;40.40;43.20;;;;;;4937389;29;20636;-71
2021/07/25 12:01:35;;;;;;;1.90;1.90;;;39.60;42.10;;;;;;4934552;28;20689;-70
2021/07/25 12:04:22;;;;;;;2.35;2.20;;;39.40;44.50;;;;;;4923461;29;20282;-70
2021/07/25 12:07:04;;;;;;;3.20;2.63;;;39.50;41.40;;;;;;4936690;29;20747;-71
2021/07/25 12:09:31;;;;;;;1.85;1.83;;;39.50;42.90;;;;;;4953856;28;20264;-71
2021/07/25 12:12:05;;;;;;;2.67;2.53;;;39.70;43.80;;;;;;5033553;28;20179;-72
2021/07/25 12:14:34;;;;;;;2.10;2.10;;;40.10;41.70;;;;;;5029957;28;20210;-71
2021/07/25 12:17:00;;;;;;;2.33;2.22;;;40.60;42.40;;;;;;5026908;28;20673;-71
2021/07/25 12:19:25;;;;;;;2.08;1.98;;;41.00;41.10;;;;;;5030023;28;20179;-71
2021/07/25 12:22:11;;;;;;;2.50;2.40;;;41.50;42.00;;;;;;5025506;28;20186;-71
2021/07/25 12:24:40;;;;;;;2.15;2.15;;;41.70;39.20;;;;;;5034828;28;20203;-72
2021/07/25 12:27:22;;;;;;;2.10;2.10;;;41.50;40.70;;;;;;5025766;28;20187;-71
2021/07/25 12:29:47;;;;;;;2.28;2.20;;;41.40;43.40;;;;;;5021077;28;20184;-71
2021/07/25 12:32:20;;;;;;;2.47;2.38;;;41.60;41.40;;;;;;5017926;28;20643;-71
2021/07/25 12:34:46;;;;;;;2.88;2.72;;;41.90;41.00;;;;;;5023093;28;20188;-72
2021/07/25 12:37:32;;;;;;;2.97;2.80;;;42.20;42.40;;;;;;5023314;28;20208;-71
2021/07/25 12:40:04;;;;;;;2.53;2.47;;;42.70;40.20;;;;;;5012862;28;20183;-71
2021/07/25 12:42:55;;;;;;;2.28;2.28;;;43.20;40.60;;;;;;5016638;28;20211;-71
2021/07/25 12:45:28;;;;;;;2.35;2.15;;;43.60;39.40;;;;;;5018365;28;20219;-71
2021/07/25 12:48:16;;;;;;;2.00;2.00;;;44.00;40.70;;;;;;5023028;28;20723;-71
2021/07/25 12:53:42;;;;;;;2.15;2.05;;;45.00;40.20;;;;;;5022578;28;20286;-71
2021/07/25 12:56:19;;;;;;;3.03;2.92;;;45.10;38.90;;;;;;5023037;28;20199;-72
2021/07/25 12:58:52;;;;;;;2.50;2.40;;;44.50;37.20;;;;;;5023100;28;20270;-72
2021/07/25 13:03:55;;;;;;;1.98;1.98;;;43.00;39.90;;;;;;5023780;28;20653;-72